sensor_id;sensor_type;location;lat;lon;timestamp;P1;durP1;ratioP1;P2;durP2;ratioP2
19113;SDS011;9689;51.052;13.772;2023-04-02T00:00:13;6.82;;;4.22;;
19113;SDS011;9689;51.052;13.772;2023-04-02T00:05:29;7.03;;;3.80;;
19113;SDS011;9689;51.052;13.772;2023-04-02T00:10:50;5.95;;;4.15;;
19113;SDS011;9689;51.052;13.772;2023-04-02T00:15:54;5.72;;;4.32;;
19113;SDS011;9689;51.052;13.772;2023-04-02T00:21:05;6.32;;;3.63;;
19113;SDS011;9689;51.052;13.772;2023-04-02T00:26:28;6.88;;;4.20;;
19113;SDS011;9689;51.052;13.772;2023-04-02T00:31:32;6.90;;;3.97;;
19113;SDS011;9689;51.052;13.772;2023-04-02T00:36:41;4.70;;;3.22;;
19113;SDS011;9689;51.052;13.772;2023-04-02T00:41:46;6.13;;;3.47;;
19113;SDS011;9689;51.052;13.772;2023-04-02T00:46:54;4.68;;;3.17;;
19113;SDS011;9689;51.052;13.772;2023-04-02T00:51:59;6.72;;;3.30;;
19113;SDS011;9689;51.052;13.772;2023-04-02T00:57:09;4.95;;;3.50;;
19113;SDS011;9689;51.052;13.772;2023-04-02T01:02:21;5.95;;;3.90;;
19113;SDS011;9689;51.052;13.772;2023-04-02T01:07:42;5.43;;;4.18;;
19113;SDS011;9689;51.052;13.772;2023-04-02T01:13:07;6.10;;;4.80;;
19113;SDS011;9689;51.052;13.772;2023-04-02T01:18:22;8.55;;;5.05;;
19113;SDS011;9689;51.052;13.772;2023-04-02T01:23:38;5.22;;;4.05;;
19113;SDS011;9689;51.052;13.772;2023-04-02T01:28:57;6.18;;;3.70;;
19113;SDS011;9689;51.052;13.772;2023-04-02T01:34:05;6.82;;;3.70;;
19113;SDS011;9689;51.052;13.772;2023-04-02T01:39:12;4.90;;;3.92;;
19113;SDS011;9689;51.052;13.772;2023-04-02T01:44:29;8.48;;;4.35;;
19113;SDS011;9689;51.052;13.772;2023-04-02T01:49:37;7.60;;;4.57;;
19113;SDS011;9689;51.052;13.772;2023-04-02T01:54:42;12.10;;;5.55;;
19113;SDS011;9689;51.052;13.772;2023-04-02T01:59:48;7.38;;;4.70;;
19113;SDS011;9689;51.052;13.772;2023-04-02T02:04:51;5.10;;;4.07;;
19113;SDS011;9689;51.052;13.772;2023-04-02T02:09:55;7.63;;;5.05;;
19113;SDS011;9689;51.052;13.772;2023-04-02T02:14:59;6.35;;;3.92;;
19113;SDS011;9689;51.052;13.772;2023-04-02T02:20:03;6.03;;;4.13;;
19113;SDS011;9689;51.052;13.772;2023-04-02T02:25:10;5.47;;;3.65;;
19113;SDS011;9689;51.052;13.772;2023-04-02T02:30:18;4.05;;;2.88;;
19113;SDS011;9689;51.052;13.772;2023-04-02T02:35:26;5.50;;;3.03;;
19113;SDS011;9689;51.052;13.772;2023-04-02T02:40:37;3.85;;;2.88;;
19113;SDS011;9689;51.052;13.772;2023-04-02T02:45:46;5.20;;;3.20;;
19113;SDS011;9689;51.052;13.772;2023-04-02T02:50:51;3.45;;;2.67;;
19113;SDS011;9689;51.052;13.772;2023-04-02T02:55:55;3.90;;;2.85;;
19113;SDS011;9689;51.052;13.772;2023-04-02T03:01:09;3.13;;;2.35;;
19113;SDS011;9689;51.052;13.772;2023-04-02T03:06:15;3.00;;;2.33;;
19113;SDS011;9689;51.052;13.772;2023-04-02T03:11:26;7.90;;;2.53;;
19113;SDS011;9689;51.052;13.772;2023-04-02T03:16:39;3.38;;;2.50;;
19113;SDS011;9689;51.052;13.772;2023-04-02T03:21:50;3.03;;;2.20;;
19113;SDS011;9689;51.052;13.772;2023-04-02T03:26:55;2.30;;;1.58;;
19113;SDS011;9689;51.052;13.772;2023-04-02T03:32:04;5.22;;;1.70;;
19113;SDS011;9689;51.052;13.772;2023-04-02T03:37:13;3.80;;;1.38;;
19113;SDS011;9689;51.052;13.772;2023-04-02T03:42:20;2.08;;;1.33;;
19113;SDS011;9689;51.052;13.772;2023-04-02T03:47:31;3.20;;;1.70;;
19113;SDS011;9689;51.052;13.772;2023-04-02T03:52:37;3.00;;;1.95;;
19113;SDS011;9689;51.052;13.772;2023-04-02T03:57:45;3.85;;;2.33;;
19113;SDS011;9689;51.052;13.772;2023-04-02T04:03:01;4.10;;;1.65;;
19113;SDS011;9689;51.052;13.772;2023-04-02T04:08:13;2.90;;;2.22;;
19113;SDS011;9689;51.052;13.772;2023-04-02T04:13:19;3.78;;;2.20;;
19113;SDS011;9689;51.052;13.772;2023-04-02T04:18:30;3.70;;;2.38;;
19113;SDS011;9689;51.052;13.772;2023-04-02T04:23:45;3.35;;;2.35;;
19113;SDS011;9689;51.052;13.772;2023-04-02T04:28:55;5.60;;;2.47;;
19113;SDS011;9689;51.052;13.772;2023-04-02T04:34:10;4.60;;;2.70;;
19113;SDS011;9689;51.052;13.772;2023-04-02T04:39:17;4.25;;;2.70;;
19113;SDS011;9689;51.052;13.772;2023-04-02T04:44:24;5.75;;;3.90;;
19113;SDS011;9689;51.052;13.772;2023-04-02T04:49:39;5.50;;;3.65;;
19113;SDS011;9689;51.052;13.772;2023-04-02T04:54:47;7.40;;;3.15;;
19113;SDS011;9689;51.052;13.772;2023-04-02T04:59:54;6.10;;;3.25;;
19113;SDS011;9689;51.052;13.772;2023-04-02T05:05:14;4.85;;;2.42;;
19113;SDS011;9689;51.052;13.772;2023-04-02T05:10:22;4.43;;;2.78;;
19113;SDS011;9689;51.052;13.772;2023-04-02T05:15:32;6.03;;;2.70;;
19113;SDS011;9689;51.052;13.772;2023-04-02T05:20:45;6.03;;;3.03;;
19113;SDS011;9689;51.052;13.772;2023-04-02T05:25:57;7.50;;;3.00;;
19113;SDS011;9689;51.052;13.772;2023-04-02T05:31:07;4.03;;;2.92;;
19113;SDS011;9689;51.052;13.772;2023-04-02T05:36:19;5.72;;;2.60;;
19113;SDS011;9689;51.052;13.772;2023-04-02T05:41:28;5.63;;;3.38;;
19113;SDS011;9689;51.052;13.772;2023-04-02T05:46:40;8.35;;;3.38;;
19113;SDS011;9689;51.052;13.772;2023-04-02T05:51:49;4.90;;;3.78;;
19113;SDS011;9689;51.052;13.772;2023-04-02T05:56:57;7.50;;;3.90;;
19113;SDS011;9689;51.052;13.772;2023-04-02T06:02:05;6.88;;;3.80;;
19113;SDS011;9689;51.052;13.772;2023-04-02T06:07:20;5.55;;;3.63;;
19113;SDS011;9689;51.052;13.772;2023-04-02T06:12:29;10.05;;;4.50;;
19113;SDS011;9689;51.052;13.772;2023-04-02T06:17:42;7.28;;;4.88;;
19113;SDS011;9689;51.052;13.772;2023-04-02T06:22:50;7.53;;;4.40;;
19113;SDS011;9689;51.052;13.772;2023-04-02T06:27:57;9.52;;;4.85;;
19113;SDS011;9689;51.052;13.772;2023-04-02T06:33:02;11.98;;;5.15;;
19113;SDS011;9689;51.052;13.772;2023-04-02T06:38:13;11.52;;;4.50;;
19113;SDS011;9689;51.052;13.772;2023-04-02T06:43:21;7.95;;;4.10;;
19113;SDS011;9689;51.052;13.772;2023-04-02T06:48:51;6.32;;;3.13;;
19113;SDS011;9689;51.052;13.772;2023-04-02T06:54:08;5.47;;;3.10;;
19113;SDS011;9689;51.052;13.772;2023-04-02T06:59:18;4.47;;;2.90;;
19113;SDS011;9689;51.052;13.772;2023-04-02T07:04:21;7.28;;;3.17;;
19113;SDS011;9689;51.052;13.772;2023-04-02T07:09:26;6.28;;;3.33;;
19113;SDS011;9689;51.052;13.772;2023-04-02T07:14:31;10.23;;;3.10;;
19113;SDS011;9689;51.052;13.772;2023-04-02T07:19:33;6.30;;;2.88;;
19113;SDS011;9689;51.052;13.772;2023-04-02T07:24:36;7.43;;;3.33;;
19113;SDS011;9689;51.052;13.772;2023-04-02T07:29:36;8.30;;;3.10;;
19113;SDS011;9689;51.052;13.772;2023-04-02T07:34:41;7.43;;;3.05;;
19113;SDS011;9689;51.052;13.772;2023-04-02T07:39:43;7.28;;;2.55;;
19113;SDS011;9689;51.052;13.772;2023-04-02T07:44:45;7.25;;;2.72;;
19113;SDS011;9689;51.052;13.772;2023-04-02T07:49:57;7.47;;;2.72;;
19113;SDS011;9689;51.052;13.772;2023-04-02T07:54:59;9.70;;;3.70;;
19113;SDS011;9689;51.052;13.772;2023-04-02T08:00:01;5.70;;;2.90;;
19113;SDS011;9689;51.052;13.772;2023-04-02T08:05:11;8.13;;;2.83;;
19113;SDS011;9689;51.052;13.772;2023-04-02T08:10:19;10.85;;;3.10;;
19113;SDS011;9689;51.052;13.772;2023-04-02T08:15:20;9.77;;;3.05;;
19113;SDS011;9689;51.052;13.772;2023-04-02T08:20:26;5.10;;;3.08;;
19113;SDS011;9689;51.052;13.772;2023-04-02T08:25:28;6.65;;;2.92;;
19113;SDS011;9689;51.052;13.772;2023-04-02T08:30:29;9.15;;;3.45;;
19113;SDS011;9689;51.052;13.772;2023-04-02T08:35:30;5.78;;;2.50;;
19113;SDS011;9689;51.052;13.772;2023-04-02T08:40:35;5.45;;;2.90;;
19113;SDS011;9689;51.052;13.772;2023-04-02T08:45:43;5.95;;;3.63;;
19113;SDS011;9689;51.052;13.772;2023-04-02T08:50:49;6.38;;;3.28;;
19113;SDS011;9689;51.052;13.772;2023-04-02T08:55:55;7.50;;;2.95;;
19113;SDS011;9689;51.052;13.772;2023-04-02T09:01:02;4.88;;;2.83;;
19113;SDS011;9689;51.052;13.772;2023-04-02T09:06:09;3.40;;;2.50;;
19113;SDS011;9689;51.052;13.772;2023-04-02T09:11:20;5.18;;;2.30;;
19113;SDS011;9689;51.052;13.772;2023-04-02T09:16:33;3.58;;;2.00;;
19113;SDS011;9689;51.052;13.772;2023-04-02T09:21:42;3.58;;;1.77;;
19113;SDS011;9689;51.052;13.772;2023-04-02T09:26:46;3.08;;;1.75;;
19113;SDS011;9689;51.052;13.772;2023-04-02T09:31:49;3.35;;;2.20;;
19113;SDS011;9689;51.052;13.772;2023-04-02T09:37:05;4.65;;;2.10;;
19113;SDS011;9689;51.052;13.772;2023-04-02T09:42:27;5.65;;;2.00;;
19113;SDS011;9689;51.052;13.772;2023-04-02T09:47:30;8.02;;;2.70;;
19113;SDS011;9689;51.052;13.772;2023-04-02T09:52:32;5.93;;;2.47;;
19113;SDS011;9689;51.052;13.772;2023-04-02T09:57:36;3.40;;;1.60;;
19113;SDS011;9689;51.052;13.772;2023-04-02T10:02:37;7.65;;;2.10;;
19113;SDS011;9689;51.052;13.772;2023-04-02T10:07:40;3.70;;;2.15;;
19113;SDS011;9689;51.052;13.772;2023-04-02T10:12:46;4.00;;;2.25;;
19113;SDS011;9689;51.052;13.772;2023-04-02T10:17:53;3.65;;;2.13;;
19113;SDS011;9689;51.052;13.772;2023-04-02T10:22:59;6.35;;;2.78;;
19113;SDS011;9689;51.052;13.772;2023-04-02T10:28:07;4.85;;;1.90;;
19113;SDS011;9689;51.052;13.772;2023-04-02T10:33:24;3.17;;;2.17;;
19113;SDS011;9689;51.052;13.772;2023-04-02T10:38:32;4.38;;;1.70;;
19113;SDS011;9689;51.052;13.772;2023-04-02T10:43:51;7.53;;;1.70;;
19113;SDS011;9689;51.052;13.772;2023-04-02T10:49:20;4.00;;;2.03;;
19113;SDS011;9689;51.052;13.772;2023-04-02T10:54:32;5.70;;;1.52;;
19113;SDS011;9689;51.052;13.772;2023-04-02T10:59:43;5.18;;;2.22;;
19113;SDS011;9689;51.052;13.772;2023-04-02T11:04:48;3.70;;;1.55;;
19113;SDS011;9689;51.052;13.772;2023-04-02T11:09:51;5.75;;;1.38;;
19113;SDS011;9689;51.052;13.772;2023-04-02T11:14:57;4.53;;;1.95;;
19113;SDS011;9689;51.052;13.772;2023-04-02T11:25:41;4.05;;;2.03;;
19113;SDS011;9689;51.052;13.772;2023-04-02T11:30:44;4.97;;;1.90;;
19113;SDS011;9689;51.052;13.772;2023-04-02T11:35:48;6.15;;;2.70;;
19113;SDS011;9689;51.052;13.772;2023-04-02T11:40:49;4.95;;;1.98;;
19113;SDS011;9689;51.052;13.772;2023-04-02T11:45:55;3.60;;;2.25;;
19113;SDS011;9689;51.052;13.772;2023-04-02T11:50:58;5.57;;;2.30;;
19113;SDS011;9689;51.052;13.772;2023-04-02T11:56:08;4.95;;;2.97;;
19113;SDS011;9689;51.052;13.772;2023-04-02T12:01:25;5.95;;;2.47;;
19113;SDS011;9689;51.052;13.772;2023-04-02T12:06:58;4.15;;;2.30;;
19113;SDS011;9689;51.052;13.772;2023-04-02T12:12:26;5.18;;;2.25;;
19113;SDS011;9689;51.052;13.772;2023-04-02T12:17:32;5.85;;;2.38;;
19113;SDS011;9689;51.052;13.772;2023-04-02T12:22:37;5.43;;;2.10;;
19113;SDS011;9689;51.052;13.772;2023-04-02T12:27:40;4.75;;;1.70;;
19113;SDS011;9689;51.052;13.772;2023-04-02T12:32:47;4.38;;;2.33;;
19113;SDS011;9689;51.052;13.772;2023-04-02T12:37:51;8.25;;;2.33;;
19113;SDS011;9689;51.052;13.772;2023-04-02T12:42:52;3.28;;;1.90;;
19113;SDS011;9689;51.052;13.772;2023-04-02T12:47:54;7.65;;;1.92;;
19113;SDS011;9689;51.052;13.772;2023-04-02T12:52:59;3.70;;;2.08;;
19113;SDS011;9689;51.052;13.772;2023-04-02T12:58:00;7.22;;;2.38;;
19113;SDS011;9689;51.052;13.772;2023-04-02T13:03:18;5.32;;;2.67;;
19113;SDS011;9689;51.052;13.772;2023-04-02T13:08:21;6.18;;;1.95;;
19113;SDS011;9689;51.052;13.772;2023-04-02T13:13:27;5.32;;;2.17;;
19113;SDS011;9689;51.052;13.772;2023-04-02T13:18:31;3.28;;;1.35;;
19113;SDS011;9689;51.052;13.772;2023-04-02T13:23:35;4.60;;;1.73;;
19113;SDS011;9689;51.052;13.772;2023-04-02T13:28:36;4.32;;;1.73;;
19113;SDS011;9689;51.052;13.772;2023-04-02T13:33:39;4.22;;;1.40;;
19113;SDS011;9689;51.052;13.772;2023-04-02T13:38:41;4.75;;;2.08;;
19113;SDS011;9689;51.052;13.772;2023-04-02T13:43:47;3.53;;;1.60;;
19113;SDS011;9689;51.052;13.772;2023-04-02T13:48:51;2.80;;;1.63;;
19113;SDS011;9689;51.052;13.772;2023-04-02T13:53:56;2.28;;;1.52;;
19113;SDS011;9689;51.052;13.772;2023-04-02T13:58:58;3.60;;;1.58;;
19113;SDS011;9689;51.052;13.772;2023-04-02T14:04:02;3.88;;;1.52;;
19113;SDS011;9689;51.052;13.772;2023-04-02T14:09:06;4.72;;;1.52;;
19113;SDS011;9689;51.052;13.772;2023-04-02T14:14:20;5.35;;;1.75;;
19113;SDS011;9689;51.052;13.772;2023-04-02T14:19:36;8.98;;;1.77;;
19113;SDS011;9689;51.052;13.772;2023-04-02T14:24:49;2.33;;;1.20;;
19113;SDS011;9689;51.052;13.772;2023-04-02T14:30:00;2.83;;;1.40;;
19113;SDS011;9689;51.052;13.772;2023-04-02T14:35:11;7.45;;;1.50;;
19113;SDS011;9689;51.052;13.772;2023-04-02T14:40:25;4.00;;;1.40;;
19113;SDS011;9689;51.052;13.772;2023-04-02T14:45:38;3.95;;;2.00;;
19113;SDS011;9689;51.052;13.772;2023-04-02T14:50:48;5.95;;;1.80;;
19113;SDS011;9689;51.052;13.772;2023-04-02T14:55:54;5.25;;;3.45;;
19113;SDS011;9689;51.052;13.772;2023-04-02T15:01:00;5.15;;;2.00;;
19113;SDS011;9689;51.052;13.772;2023-04-02T15:06:14;3.80;;;2.08;;
19113;SDS011;9689;51.052;13.772;2023-04-02T15:11:19;5.88;;;2.75;;
19113;SDS011;9689;51.052;13.772;2023-04-02T15:16:24;6.80;;;1.98;;
19113;SDS011;9689;51.052;13.772;2023-04-02T15:21:39;4.00;;;1.85;;
19113;SDS011;9689;51.052;13.772;2023-04-02T15:27:00;5.70;;;2.15;;
19113;SDS011;9689;51.052;13.772;2023-04-02T15:32:28;4.13;;;1.98;;
19113;SDS011;9689;51.052;13.772;2023-04-02T15:37:38;5.95;;;1.50;;
19113;SDS011;9689;51.052;13.772;2023-04-02T15:42:51;3.67;;;1.27;;
19113;SDS011;9689;51.052;13.772;2023-04-02T15:48:06;6.32;;;1.45;;
19113;SDS011;9689;51.052;13.772;2023-04-02T15:53:34;3.25;;;1.63;;
19113;SDS011;9689;51.052;13.772;2023-04-02T15:59:01;2.90;;;1.20;;
19113;SDS011;9689;51.052;13.772;2023-04-02T16:04:26;5.13;;;1.70;;
19113;SDS011;9689;51.052;13.772;2023-04-02T16:09:43;5.47;;;1.70;;
19113;SDS011;9689;51.052;13.772;2023-04-02T16:14:53;5.20;;;1.63;;
19113;SDS011;9689;51.052;13.772;2023-04-02T16:20:12;4.10;;;1.50;;
19113;SDS011;9689;51.052;13.772;2023-04-02T16:25:19;5.07;;;2.00;;
19113;SDS011;9689;51.052;13.772;2023-04-02T16:30:29;4.63;;;2.10;;
19113;SDS011;9689;51.052;13.772;2023-04-02T16:35:43;3.78;;;1.55;;
19113;SDS011;9689;51.052;13.772;2023-04-02T16:40:56;4.18;;;1.52;;
19113;SDS011;9689;51.052;13.772;2023-04-02T16:46:10;4.68;;;1.85;;
19113;SDS011;9689;51.052;13.772;2023-04-02T16:51:39;4.45;;;1.50;;
19113;SDS011;9689;51.052;13.772;2023-04-02T16:56:49;3.92;;;1.50;;
19113;SDS011;9689;51.052;13.772;2023-04-02T17:02:05;5.13;;;1.75;;
19113;SDS011;9689;51.052;13.772;2023-04-02T17:07:26;2.80;;;1.27;;
19113;SDS011;9689;51.052;13.772;2023-04-02T17:12:37;3.90;;;1.60;;
19113;SDS011;9689;51.052;13.772;2023-04-02T17:17:44;2.88;;;1.52;;
19113;SDS011;9689;51.052;13.772;2023-04-02T17:22:45;5.25;;;1.60;;
19113;SDS011;9689;51.052;13.772;2023-04-02T17:27:49;7.07;;;2.08;;
19113;SDS011;9689;51.052;13.772;2023-04-02T17:32:54;5.03;;;1.58;;
19113;SDS011;9689;51.052;13.772;2023-04-02T17:37:56;5.93;;;2.03;;
19113;SDS011;9689;51.052;13.772;2023-04-02T17:43:11;4.45;;;1.70;;
19113;SDS011;9689;51.052;13.772;2023-04-02T17:48:25;4.55;;;1.98;;
19113;SDS011;9689;51.052;13.772;2023-04-02T17:53:35;6.30;;;2.00;;
19113;SDS011;9689;51.052;13.772;2023-04-02T17:58:51;13.35;;;4.25;;
19113;SDS011;9689;51.052;13.772;2023-04-02T18:04:17;8.85;;;2.50;;
19113;SDS011;9689;51.052;13.772;2023-04-02T18:09:35;6.65;;;2.20;;
19113;SDS011;9689;51.052;13.772;2023-04-02T18:14:51;7.68;;;2.63;;
19113;SDS011;9689;51.052;13.772;2023-04-02T18:20:03;9.23;;;2.55;;
19113;SDS011;9689;51.052;13.772;2023-04-02T18:25:22;4.35;;;2.00;;
19113;SDS011;9689;51.052;13.772;2023-04-02T18:30:33;4.80;;;2.50;;
19113;SDS011;9689;51.052;13.772;2023-04-02T18:35:42;5.50;;;2.80;;
19113;SDS011;9689;51.052;13.772;2023-04-02T18:41:00;8.90;;;3.88;;
19113;SDS011;9689;51.052;13.772;2023-04-02T18:46:08;9.40;;;3.10;;
19113;SDS011;9689;51.052;13.772;2023-04-02T18:51:21;7.13;;;2.58;;
19113;SDS011;9689;51.052;13.772;2023-04-02T18:56:23;4.25;;;1.98;;
19113;SDS011;9689;51.052;13.772;2023-04-02T19:01:29;9.60;;;3.83;;
19113;SDS011;9689;51.052;13.772;2023-04-02T19:06:34;4.10;;;2.20;;
19113;SDS011;9689;51.052;13.772;2023-04-02T19:11:39;5.80;;;2.80;;
19113;SDS011;9689;51.052;13.772;2023-04-02T19:16:53;10.10;;;3.03;;
19113;SDS011;9689;51.052;13.772;2023-04-02T19:27:30;5.30;;;2.60;;
19113;SDS011;9689;51.052;13.772;2023-04-02T19:32:41;9.10;;;3.10;;
19113;SDS011;9689;51.052;13.772;2023-04-02T19:37:48;7.15;;;3.35;;
19113;SDS011;9689;51.052;13.772;2023-04-02T19:42:57;4.90;;;2.42;;
19113;SDS011;9689;51.052;13.772;2023-04-02T19:48:01;13.20;;;2.90;;
19113;SDS011;9689;51.052;13.772;2023-04-02T19:53:09;9.02;;;2.97;;
19113;SDS011;9689;51.052;13.772;2023-04-02T19:58:11;7.28;;;2.90;;
19113;SDS011;9689;51.052;13.772;2023-04-02T20:03:22;6.97;;;2.63;;
19113;SDS011;9689;51.052;13.772;2023-04-02T20:08:23;7.57;;;2.50;;
19113;SDS011;9689;51.052;13.772;2023-04-02T20:13:24;6.38;;;2.50;;
19113;SDS011;9689;51.052;13.772;2023-04-02T20:18:26;7.70;;;2.13;;
19113;SDS011;9689;51.052;13.772;2023-04-02T20:23:27;4.82;;;1.98;;
19113;SDS011;9689;51.052;13.772;2023-04-02T20:28:28;3.88;;;2.03;;
19113;SDS011;9689;51.052;13.772;2023-04-02T20:33:31;4.40;;;1.92;;
19113;SDS011;9689;51.052;13.772;2023-04-02T20:38:32;10.05;;;2.30;;
19113;SDS011;9689;51.052;13.772;2023-04-02T20:43:34;6.97;;;2.25;;
19113;SDS011;9689;51.052;13.772;2023-04-02T20:48:40;6.80;;;2.10;;
19113;SDS011;9689;51.052;13.772;2023-04-02T20:53:41;4.75;;;2.42;;
19113;SDS011;9689;51.052;13.772;2023-04-02T20:58:45;5.20;;;2.17;;
19113;SDS011;9689;51.052;13.772;2023-04-02T21:03:47;7.75;;;1.95;;
19113;SDS011;9689;51.052;13.772;2023-04-02T21:08:48;4.32;;;1.60;;
19113;SDS011;9689;51.052;13.772;2023-04-02T21:13:50;6.68;;;2.00;;
19113;SDS011;9689;51.052;13.772;2023-04-02T21:18:52;6.15;;;2.63;;
19113;SDS011;9689;51.052;13.772;2023-04-02T21:23:54;3.90;;;1.58;;
19113;SDS011;9689;51.052;13.772;2023-04-02T21:28:56;16.67;;;5.53;;
19113;SDS011;9689;51.052;13.772;2023-04-02T21:33:58;4.85;;;1.80;;
19113;SDS011;9689;51.052;13.772;2023-04-02T21:38:59;3.42;;;1.33;;
19113;SDS011;9689;51.052;13.772;2023-04-02T21:44:02;5.03;;;1.42;;
19113;SDS011;9689;51.052;13.772;2023-04-02T21:49:06;4.75;;;1.20;;
19113;SDS011;9689;51.052;13.772;2023-04-02T21:54:07;3.42;;;1.42;;
19113;SDS011;9689;51.052;13.772;2023-04-02T21:59:09;10.63;;;1.38;;
19113;SDS011;9689;51.052;13.772;2023-04-02T22:04:15;6.30;;;1.50;;
19113;SDS011;9689;51.052;13.772;2023-04-02T22:09:17;8.85;;;2.13;;
19113;SDS011;9689;51.052;13.772;2023-04-02T22:14:19;5.22;;;1.20;;
19113;SDS011;9689;51.052;13.772;2023-04-02T22:19:22;6.28;;;2.10;;
19113;SDS011;9689;51.052;13.772;2023-04-02T22:24:24;7.35;;;1.20;;
19113;SDS011;9689;51.052;13.772;2023-04-02T22:29:26;5.40;;;1.50;;
19113;SDS011;9689;51.052;13.772;2023-04-02T22:34:28;4.43;;;0.98;;
19113;SDS011;9689;51.052;13.772;2023-04-02T22:39:29;2.35;;;1.30;;
19113;SDS011;9689;51.052;13.772;2023-04-02T22:44:30;8.93;;;1.60;;
19113;SDS011;9689;51.052;13.772;2023-04-02T22:49:32;12.63;;;2.25;;
19113;SDS011;9689;51.052;13.772;2023-04-02T22:54:32;5.38;;;1.45;;
19113;SDS011;9689;51.052;13.772;2023-04-02T22:59:33;4.90;;;1.30;;
19113;SDS011;9689;51.052;13.772;2023-04-02T23:04:35;4.45;;;1.52;;
19113;SDS011;9689;51.052;13.772;2023-04-02T23:09:36;7.25;;;1.45;;
19113;SDS011;9689;51.052;13.772;2023-04-02T23:14:37;2.83;;;1.00;;
19113;SDS011;9689;51.052;13.772;2023-04-02T23:19:39;8.02;;;1.52;;
19113;SDS011;9689;51.052;13.772;2023-04-02T23:24:40;7.20;;;1.73;;
19113;SDS011;9689;51.052;13.772;2023-04-02T23:29:40;4.32;;;1.27;;
19113;SDS011;9689;51.052;13.772;2023-04-02T23:34:42;6.00;;;1.80;;
19113;SDS011;9689;51.052;13.772;2023-04-02T23:39:43;7.43;;;1.55;;
19113;SDS011;9689;51.052;13.772;2023-04-02T23:44:44;5.95;;;1.30;;
19113;SDS011;9689;51.052;13.772;2023-04-02T23:49:46;6.32;;;1.52;;
19113;SDS011;9689;51.052;13.772;2023-04-02T23:54:47;5.65;;;1.50;;
19113;SDS011;9689;51.052;13.772;2023-04-02T23:59:47;5.70;;;1.40;;
